aviador You're here:

GMTT Decoded Metar

TANGER in MOROCCO
Report Time2018-04-26 01:00:00
UTC Time2018-04-26 01:27:13
Flight Rules mvfr MVFR
WindVRB at 02 kt
Visibility6000 m
Phenomena:N/A
Clouds:Scattered 016 Hf
Expected CloudBase > 400 ft AGL from Temp-Dew spread
CeilingNone
Temp16°C (ISA +1)
Dew Point15°C (94% RH)
QNH1018 hPa
Density Alt262 ft
Elevation69 ft
Report Wrong Elevation
Raw Report
GMTT 260100Z VRB02KT 6000 SCT016 16/15 Q1018 NOSIG=

Extra information for GMTT:More info

Metar Taf Metar & Taf Last 4 Metars F.Rules Stats Wind Profile Meteogram Temp Stats Airport Information Weather charts Add Link Nearby VenuesMetar ALERT Operation Metar Decoded Social comments